Huvudsida
METAR-TAF:

METAR-TAF

Flygplatser :

Oslo flygplats. Gardermoen

Oslo, Norge

latitud: 60-12N, longitud: 011-05E, höjd: 208 m

Aktuellt väderrapport

Denna rapport gjordes för 25 minuter sedan, klockan 13:20 UTC
Vind 12 kt från nord
Temperatur 12°C
Fuktighet 47%
Tryck 999 hPa
Sikt 10 km eller mer
Få moln på en höjd av 4500 ft
Brutna moln på en höjd av 7000 ft

METAR: ENGM 261320Z 01012KT 9999 FEW045 BKN070 12/01 Q0999 NOSIG

Tid: 15:45 (13:45 UTC)

Väderprognos

Prognos gäller från 26 kl. 12 UTC till 27 kl. 12 UTC
Vind 12 kt från nord
Sikt 10 km eller mer
Få moln på en höjd av 3000 ft
Spridda moln på en höjd av 6000 ft
Blir
från 26 kl. 17 UTC till 26 kl. 19 UTC
Vind 5 kt från ost
Temporärt
från 27 kl. 03 UTC till 27 kl. 12 UTC
Brutna moln på en höjd av 1400 ft
regn

TAF: ENGM 2612/2712 36012KT 9999 FEW030 SCT060 BECMG 2617/2619 09005KT TEMPO 2703/2712 RA BKN014

Aktuella väderrapporter och prognoser från 4000 flygplatser (METAR- och TAF-rapporter).

De tillgängliga stationerna syns som gula och röda prickar på kartan.

För musen över prickarna för att se namnen på stationerna.

Klicka sedan för att få väderrapporter och prognoser.

För att ändra kartan: Klicka på de gröna knapparna med ett svart kors på för att zooma in; den gröna knappen med ett streck på för att zooma ut; eller på de gröna pilarna för angränsande kartor.


METAR-TAF: